sensor_id;sensor_type;location;lat;lon;timestamp;pressure;altitude;pressure_sealevel;temperature;humidity
71457;BME280;59263;48.160;11.752;2023-04-25T00:00:27;95270.44;;;7.19;100.00
71457;BME280;59263;48.160;11.752;2023-04-25T00:02:53;95268.69;;;7.19;100.00
71457;BME280;59263;48.160;11.752;2023-04-25T00:05:18;95257.19;;;7.14;100.00
71457;BME280;59263;48.160;11.752;2023-04-25T00:07:44;95264.91;;;7.14;100.00
71457;BME280;59263;48.160;11.752;2023-04-25T00:10:11;95266.66;;;7.13;100.00
71457;BME280;59263;48.160;11.752;2023-04-25T00:12:37;95261.38;;;7.15;100.00
71457;BME280;59263;48.160;11.752;2023-04-25T00:15:03;95263.66;;;7.18;100.00
71457;BME280;59263;48.160;11.752;2023-04-25T00:17:28;95264.75;;;7.25;100.00
71457;BME280;59263;48.160;11.752;2023-04-25T00:19:54;95257.19;;;7.23;100.00
71457;BME280;59263;48.160;11.752;2023-04-25T00:22:21;95236.59;;;7.14;100.00
71457;BME280;59263;48.160;11.752;2023-04-25T00:24:46;95250.28;;;7.24;100.00
71457;BME280;59263;48.160;11.752;2023-04-25T00:27:11;95257.84;;;7.25;100.00
71457;BME280;59263;48.160;11.752;2023-04-25T00:29:37;95267.06;;;7.28;100.00
71457;BME280;59263;48.160;11.752;2023-04-25T00:32:02;95255.53;;;7.32;100.00
71457;BME280;59263;48.160;11.752;2023-04-25T00:34:27;95260.41;;;7.35;100.00
71457;BME280;59263;48.160;11.752;2023-04-25T00:36:53;95259.63;;;7.35;100.00
71457;BME280;59263;48.160;11.752;2023-04-25T00:39:18;95258.81;;;7.34;100.00
71457;BME280;59263;48.160;11.752;2023-04-25T00:41:44;95265.69;;;7.43;100.00
71457;BME280;59263;48.160;11.752;2023-04-25T00:44:11;95271.38;;;7.47;100.00
71457;BME280;59263;48.160;11.752;2023-04-25T00:46:37;95263.13;;;7.43;100.00
71457;BME280;59263;48.160;11.752;2023-04-25T00:49:03;95257.97;;;7.53;100.00
71457;BME280;59263;48.160;11.752;2023-04-25T00:51:29;95238.50;;;7.31;100.00
71457;BME280;59263;48.160;11.752;2023-04-25T00:53:55;95249.28;;;7.44;100.00
71457;BME280;59263;48.160;11.752;2023-04-25T00:56:21;95254.16;;;7.47;100.00
71457;BME280;59263;48.160;11.752;2023-04-25T00:58:47;95241.44;;;7.36;100.00
71457;BME280;59263;48.160;11.752;2023-04-25T01:01:13;95258.50;;;7.47;100.00
71457;BME280;59263;48.160;11.752;2023-04-25T01:03:39;95247.66;;;7.43;100.00
71457;BME280;59263;48.160;11.752;2023-04-25T01:06:11;95246.31;;;7.39;100.00
71457;BME280;59263;48.160;11.752;2023-04-25T01:08:38;95251.31;;;7.50;100.00
71457;BME280;59263;48.160;11.752;2023-04-25T01:11:04;95247.13;;;7.49;100.00
71457;BME280;59263;48.160;11.752;2023-04-25T01:13:29;95242.78;;;7.40;100.00
71457;BME280;59263;48.160;11.752;2023-04-25T01:15:55;95243.06;;;7.37;100.00
71457;BME280;59263;48.160;11.752;2023-04-25T01:18:20;95235.50;;;7.26;100.00
71457;BME280;59263;48.160;11.752;2023-04-25T01:20:47;95255.53;;;7.32;100.00
71457;BME280;59263;48.160;11.752;2023-04-25T01:23:14;95239.84;;;7.16;100.00
71457;BME280;59263;48.160;11.752;2023-04-25T01:25:40;95259.88;;;7.22;100.00
71457;BME280;59263;48.160;11.752;2023-04-25T01:28:05;95245.00;;;7.16;100.00
71457;BME280;59263;48.160;11.752;2023-04-25T01:30:31;95251.75;;;7.17;100.00
71457;BME280;59263;48.160;11.752;2023-04-25T01:32:57;95250.41;;;7.13;100.00
71457;BME280;59263;48.160;11.752;2023-04-25T01:35:22;95243.34;;;7.15;100.00
71457;BME280;59263;48.160;11.752;2023-04-25T01:37:49;95231.31;;;7.06;100.00
71457;BME280;59263;48.160;11.752;2023-04-25T01:40:17;95233.06;;;6.95;100.00
71457;BME280;59263;48.160;11.752;2023-04-25T01:42:44;95233.22;;;6.94;100.00
71457;BME280;59263;48.160;11.752;2023-04-25T01:45:11;95239.56;;;6.99;100.00
71457;BME280;59263;48.160;11.752;2023-04-25T01:47:38;95236.19;;;6.89;100.00
71457;BME280;59263;48.160;11.752;2023-04-25T01:50:07;95244.97;;;6.96;100.00
71457;BME280;59263;48.160;11.752;2023-04-25T01:52:32;95234.97;;;6.93;100.00
71457;BME280;59263;48.160;11.752;2023-04-25T01:54:59;95229.81;;;6.93;100.00
71457;BME280;59263;48.160;11.752;2023-04-25T01:57:26;95229.31;;;6.90;100.00
71457;BME280;59263;48.160;11.752;2023-04-25T01:59:55;95232.94;;;6.97;100.00
71457;BME280;59263;48.160;11.752;2023-04-25T02:02:23;95228.75;;;6.96;100.00
71457;BME280;59263;48.160;11.752;2023-04-25T02:04:48;95236.19;;;6.99;100.00
71457;BME280;59263;48.160;11.752;2023-04-25T02:07:14;95222.25;;;6.92;100.00
71457;BME280;59263;48.160;11.752;2023-04-25T02:09:39;95217.38;;;6.98;100.00
71457;BME280;59263;48.160;11.752;2023-04-25T02:12:04;95224.66;;;6.93;100.00
71457;BME280;59263;48.160;11.752;2023-04-25T02:14:30;95226.31;;;7.14;100.00
71457;BME280;59263;48.160;11.752;2023-04-25T02:16:55;95225.75;;;7.10;100.00
71457;BME280;59263;48.160;11.752;2023-04-25T02:19:20;95226.19;;;7.06;100.00
71457;BME280;59263;48.160;11.752;2023-04-25T02:21:46;95201.81;;;6.90;100.00
71457;BME280;59263;48.160;11.752;2023-04-25T02:24:11;95218.72;;;6.93;100.00
71457;BME280;59263;48.160;11.752;2023-04-25T02:26:36;95212.78;;;6.92;100.00
71457;BME280;59263;48.160;11.752;2023-04-25T02:29:01;95202.50;;;6.83;100.00
71457;BME280;59263;48.160;11.752;2023-04-25T02:31:27;95210.47;;;6.79;100.00
71457;BME280;59263;48.160;11.752;2023-04-25T02:33:52;95229.00;;;6.93;100.00
71457;BME280;59263;48.160;11.752;2023-04-25T02:36:17;95219.25;;;6.96;100.00
71457;BME280;59263;48.160;11.752;2023-04-25T02:38:43;95219.53;;;7.03;100.00
71457;BME280;59263;48.160;11.752;2023-04-25T02:41:08;95206.41;;;6.96;100.00
71457;BME280;59263;48.160;11.752;2023-04-25T02:43:33;95211.69;;;7.05;100.00
71457;BME280;59263;48.160;11.752;2023-04-25T02:45:59;95220.78;;;7.09;100.00
71457;BME280;59263;48.160;11.752;2023-04-25T02:48:24;95216.69;;;7.06;100.00
71457;BME280;59263;48.160;11.752;2023-04-25T02:50:49;95200.88;;;6.91;100.00
71457;BME280;59263;48.160;11.752;2023-04-25T02:53:15;95216.16;;;7.02;100.00
71457;BME280;59263;48.160;11.752;2023-04-25T02:55:40;95213.59;;;7.02;100.00
71457;BME280;59263;48.160;11.752;2023-04-25T02:58:05;95188.16;;;6.90;100.00
71457;BME280;59263;48.160;11.752;2023-04-25T03:00:31;95213.84;;;6.99;100.00
71457;BME280;59263;48.160;11.752;2023-04-25T03:02:56;95212.78;;;6.92;100.00
71457;BME280;59263;48.160;11.752;2023-04-25T03:05:22;95214.13;;;7.06;100.00
71457;BME280;59263;48.160;11.752;2023-04-25T03:07:47;95201.69;;;7.01;100.00
71457;BME280;59263;48.160;11.752;2023-04-25T03:10:12;95199.50;;;7.07;100.00
71457;BME280;59263;48.160;11.752;2023-04-25T03:12:38;95202.88;;;7.07;100.00
71457;BME280;59263;48.160;11.752;2023-04-25T03:15:04;95203.28;;;7.02;100.00
71457;BME280;59263;48.160;11.752;2023-04-25T03:17:29;95199.50;;;7.07;100.00
71457;BME280;59263;48.160;11.752;2023-04-25T03:19:55;95208.97;;;7.16;100.00
71457;BME280;59263;48.160;11.752;2023-04-25T03:22:21;95198.81;;;7.14;100.00
71457;BME280;59263;48.160;11.752;2023-04-25T03:24:46;95205.47;;;7.17;100.00
71457;BME280;59263;48.160;11.752;2023-04-25T03:27:12;95193.81;;;7.13;100.00
71457;BME280;59263;48.160;11.752;2023-04-25T03:29:37;95199.19;;;7.29;100.00
71457;BME280;59263;48.160;11.752;2023-04-25T03:32:03;95186.88;;;7.23;100.00
71457;BME280;59263;48.160;11.752;2023-04-25T03:34:28;95199.47;;;7.36;100.00
71457;BME280;59263;48.160;11.752;2023-04-25T03:36:53;95207.28;;;7.54;100.00
71457;BME280;59263;48.160;11.752;2023-04-25T03:39:19;95191.84;;;7.44;100.00
71457;BME280;59263;48.160;11.752;2023-04-25T03:41:44;95197.03;;;7.34;100.00
71457;BME280;59263;48.160;11.752;2023-04-25T03:44:09;95189.81;;;7.38;100.00
71457;BME280;59263;48.160;11.752;2023-04-25T03:46:34;95177.28;;;7.25;100.00
71457;BME280;59263;48.160;11.752;2023-04-25T03:49:00;95199.72;;;7.33;100.00
71457;BME280;59263;48.160;11.752;2023-04-25T03:51:25;95188.63;;;7.22;100.00
71457;BME280;59263;48.160;11.752;2023-04-25T03:53:51;95205.97;;;7.30;100.00
71457;BME280;59263;48.160;11.752;2023-04-25T03:56:17;95199.22;;;7.19;100.00
71457;BME280;59263;48.160;11.752;2023-04-25T03:58:42;95193.66;;;7.14;100.00
71457;BME280;59263;48.160;11.752;2023-04-25T04:01:07;95204.38;;;7.19;100.00
71457;BME280;59263;48.160;11.752;2023-04-25T04:03:34;95209.25;;;7.13;100.00
71457;BME280;59263;48.160;11.752;2023-04-25T04:06:01;95200.84;;;7.11;100.00
71457;BME280;59263;48.160;11.752;2023-04-25T04:08:26;95185.16;;;6.94;100.00
71457;BME280;59263;48.160;11.752;2023-04-25T04:10:51;95188.66;;;7.03;100.00
71457;BME280;59263;48.160;11.752;2023-04-25T04:13:17;95198.16;;;7.02;100.00
71457;BME280;59263;48.160;11.752;2023-04-25T04:15:42;95184.59;;;7.10;100.00
71457;BME280;59263;48.160;11.752;2023-04-25T04:18:07;95204.50;;;7.18;100.00
71457;BME280;59263;48.160;11.752;2023-04-25T04:20:33;95196.13;;;7.16;100.00
71457;BME280;59263;48.160;11.752;2023-04-25T04:22:58;95187.03;;;7.12;100.00
71457;BME280;59263;48.160;11.752;2023-04-25T04:25:23;95205.16;;;7.30;100.00
71457;BME280;59263;48.160;11.752;2023-04-25T04:27:50;95203.53;;;7.19;100.00
71457;BME280;59263;48.160;11.752;2023-04-25T04:30:23;95183.00;;;7.09;100.00
71457;BME280;59263;48.160;11.752;2023-04-25T04:32:54;95196.78;;;7.18;100.00
71457;BME280;59263;48.160;11.752;2023-04-25T04:35:21;95177.03;;;6.99;100.00
71457;BME280;59263;48.160;11.752;2023-04-25T04:37:46;95197.63;;;7.09;100.00
71457;BME280;59263;48.160;11.752;2023-04-25T04:40:13;95196.38;;;7.13;100.00
71457;BME280;59263;48.160;11.752;2023-04-25T04:42:43;95192.84;;;7.23;100.00
71457;BME280;59263;48.160;11.752;2023-04-25T04:45:11;95187.03;;;7.12;100.00
71457;BME280;59263;48.160;11.752;2023-04-25T04:47:38;95177.44;;;7.14;100.00
71457;BME280;59263;48.160;11.752;2023-04-25T04:50:06;95196.66;;;7.19;100.00
71457;BME280;59263;48.160;11.752;2023-04-25T04:52:34;95200.03;;;7.20;100.00
71457;BME280;59263;48.160;11.752;2023-04-25T04:54:59;95209.22;;;7.32;100.00
71457;BME280;59263;48.160;11.752;2023-04-25T04:57:25;95212.47;;;7.34;100.00
71457;BME280;59263;48.160;11.752;2023-04-25T04:59:50;95212.47;;;7.34;100.00
71457;BME280;59263;48.160;11.752;2023-04-25T05:02:16;95200.28;;;7.36;100.00
71457;BME280;59263;48.160;11.752;2023-04-25T05:04:41;95203.22;;;7.41;100.00
71457;BME280;59263;48.160;11.752;2023-04-25T05:07:07;95211.09;;;7.49;100.00
71457;BME280;59263;48.160;11.752;2023-04-25T05:09:32;95205.25;;;7.38;100.00
71457;BME280;59263;48.160;11.752;2023-04-25T05:11:57;95197.81;;;7.44;100.00
71457;BME280;59263;48.160;11.752;2023-04-25T05:14:23;95187.69;;;7.33;100.00
71457;BME280;59263;48.160;11.752;2023-04-25T05:16:48;95191.03;;;7.43;100.00
71457;BME280;59263;48.160;11.752;2023-04-25T05:19:13;95187.50;;;7.44;100.00
71457;BME280;59263;48.160;11.752;2023-04-25T05:21:39;95169.94;;;7.30;100.00
71457;BME280;59263;48.160;11.752;2023-04-25T05:24:04;95169.94;;;7.30;100.00
71457;BME280;59263;48.160;11.752;2023-04-25T05:26:29;95172.13;;;7.35;100.00
71457;BME280;59263;48.160;11.752;2023-04-25T05:28:57;95186.69;;;7.54;100.00
71457;BME280;59263;48.160;11.752;2023-04-25T05:31:22;95181.72;;;7.42;100.00
71457;BME280;59263;48.160;11.752;2023-04-25T05:33:47;95171.78;;;7.47;100.00
71457;BME280;59263;48.160;11.752;2023-04-25T05:36:13;95186.00;;;7.51;100.00
71457;BME280;59263;48.160;11.752;2023-04-25T05:38:38;95176.41;;;7.44;100.00
71457;BME280;59263;48.160;11.752;2023-04-25T05:41:03;95186.13;;;7.60;100.00
71457;BME280;59263;48.160;11.752;2023-04-25T05:43:29;95194.78;;;7.68;100.00
71457;BME280;59263;48.160;11.752;2023-04-25T05:45:54;95186.38;;;7.66;100.00
71457;BME280;59263;48.160;11.752;2023-04-25T05:48:19;95174.72;;;7.62;100.00
71457;BME280;59263;48.160;11.752;2023-04-25T05:50:45;95186.91;;;7.70;100.00
71457;BME280;59263;48.160;11.752;2023-04-25T05:53:10;95173.38;;;7.68;100.00
71457;BME280;59263;48.160;11.752;2023-04-25T05:55:35;95188.50;;;7.81;100.00
71457;BME280;59263;48.160;11.752;2023-04-25T05:58:01;95182.53;;;7.80;100.00
71457;BME280;59263;48.160;11.752;2023-04-25T06:00:26;95176.13;;;7.84;100.00
71457;BME280;59263;48.160;11.752;2023-04-25T06:02:51;95199.81;;;7.97;100.00
71457;BME280;59263;48.160;11.752;2023-04-25T06:05:17;95190.84;;;8.02;100.00
71457;BME280;59263;48.160;11.752;2023-04-25T06:07:42;95172.19;;;7.90;100.00
71457;BME280;59263;48.160;11.752;2023-04-25T06:10:08;95185.81;;;8.00;100.00
71457;BME280;59263;48.160;11.752;2023-04-25T06:12:34;95192.09;;;7.97;100.00
71457;BME280;59263;48.160;11.752;2023-04-25T06:15:00;95199.91;;;8.06;100.00
71457;BME280;59263;48.160;11.752;2023-04-25T06:17:25;95195.06;;;7.93;100.00
71457;BME280;59263;48.160;11.752;2023-04-25T06:19:50;95207.72;;;7.86;100.00
71457;BME280;59263;48.160;11.752;2023-04-25T06:22:16;95226.41;;;7.88;100.00
71457;BME280;59263;48.160;11.752;2023-04-25T06:24:41;95206.84;;;7.68;100.00
71457;BME280;59263;48.160;11.752;2023-04-25T06:27:06;95219.13;;;7.74;100.00
71457;BME280;59263;48.160;11.752;2023-04-25T06:29:32;95226.22;;;7.62;100.00
71457;BME280;59263;48.160;11.752;2023-04-25T06:31:57;95211.63;;;7.43;100.00
71457;BME280;59263;48.160;11.752;2023-04-25T06:34:22;95202.47;;;7.31;100.00
71457;BME280;59263;48.160;11.752;2023-04-25T06:36:48;95189.59;;;7.12;100.00
71457;BME280;59263;48.160;11.752;2023-04-25T06:39:13;95190.97;;;7.16;100.00
71457;BME280;59263;48.160;11.752;2023-04-25T06:41:38;95198.81;;;7.14;100.00
71457;BME280;59263;48.160;11.752;2023-04-25T06:44:04;95188.56;;;7.05;100.00
71457;BME280;59263;48.160;11.752;2023-04-25T06:46:29;95191.66;;;6.98;100.00
71457;BME280;59263;48.160;11.752;2023-04-25T06:48:54;95200.56;;;7.14;100.00
71457;BME280;59263;48.160;11.752;2023-04-25T06:51:20;95192.16;;;7.12;100.00
71457;BME280;59263;48.160;11.752;2023-04-25T06:53:46;95209.75;;;7.26;100.00
71457;BME280;59263;48.160;11.752;2023-04-25T06:56:11;95191.91;;;7.34;100.00
71457;BME280;59263;48.160;11.752;2023-04-25T06:58:36;95204.81;;;7.62;100.00
71457;BME280;59263;48.160;11.752;2023-04-25T07:01:02;95205.00;;;7.88;100.00
71457;BME280;59263;48.160;11.752;2023-04-25T07:03:28;95183.31;;;7.90;100.00
71457;BME280;59263;48.160;11.752;2023-04-25T07:05:53;95210.88;;;8.08;100.00
71457;BME280;59263;48.160;11.752;2023-04-25T07:08:18;95203.47;;;8.05;100.00
71457;BME280;59263;48.160;11.752;2023-04-25T07:10:44;95207.66;;;8.06;100.00
71457;BME280;59263;48.160;11.752;2023-04-25T07:13:11;95185.69;;;8.02;100.00
71457;BME280;59263;48.160;11.752;2023-04-25T07:15:36;95196.00;;;8.02;100.00
71457;BME280;59263;48.160;11.752;2023-04-25T07:18:01;95220.28;;;8.27;100.00
71457;BME280;59263;48.160;11.752;2023-04-25T07:20:27;95193.13;;;8.32;100.00
71457;BME280;59263;48.160;11.752;2023-04-25T07:22:53;95207.56;;;8.70;100.00
71457;BME280;59263;48.160;11.752;2023-04-25T07:25:19;95210.38;;;8.77;100.00
71457;BME280;59263;48.160;11.752;2023-04-25T07:27:45;95193.22;;;8.68;100.00
71457;BME280;59263;48.160;11.752;2023-04-25T07:30:10;95180.31;;;8.68;100.00
71457;BME280;59263;48.160;11.752;2023-04-25T07:32:37;95200.72;;;8.79;100.00
71457;BME280;59263;48.160;11.752;2023-04-25T07:35:02;95207.94;;;8.93;100.00
71457;BME280;59263;48.160;11.752;2023-04-25T07:37:28;95204.94;;;8.80;100.00
71457;BME280;59263;48.160;11.752;2023-04-25T07:39:53;95183.53;;;8.70;100.00
71457;BME280;59263;48.160;11.752;2023-04-25T07:42:19;95179.41;;;8.14;100.00
71457;BME280;59263;48.160;11.752;2023-04-25T07:44:44;95182.50;;;8.17;100.00
71457;BME280;59263;48.160;11.752;2023-04-25T07:47:10;95183.03;;;8.21;100.00
71457;BME280;59263;48.160;11.752;2023-04-25T07:49:36;95207.25;;;8.28;100.00
71457;BME280;59263;48.160;11.752;2023-04-25T07:52:03;95203.19;;;8.25;100.00
71457;BME280;59263;48.160;11.752;2023-04-25T07:54:28;95201.16;;;8.29;100.00
71457;BME280;59263;48.160;11.752;2023-04-25T07:56:54;95199.34;;;8.39;100.00
71457;BME280;59263;48.160;11.752;2023-04-25T07:59:20;95190.63;;;8.68;100.00
71457;BME280;59263;48.160;11.752;2023-04-25T08:01:45;95176.81;;;9.13;100.00
71457;BME280;59263;48.160;11.752;2023-04-25T08:04:11;95164.22;;;9.10;100.00
71457;BME280;59263;48.160;11.752;2023-04-25T08:06:36;95175.97;;;9.30;100.00
71457;BME280;59263;48.160;11.752;2023-04-25T08:09:02;95162.50;;;9.44;100.00
71457;BME280;59263;48.160;11.752;2023-04-25T08:11:28;95175.06;;;9.65;100.00
71457;BME280;59263;48.160;11.752;2023-04-25T08:13:53;95174.59;;;9.70;100.00
71457;BME280;59263;48.160;11.752;2023-04-25T08:16:19;95175.09;;;9.74;100.00
71457;BME280;59263;48.160;11.752;2023-04-25T08:18:44;95178.91;;;9.96;100.00
71457;BME280;59263;48.160;11.752;2023-04-25T08:21:09;95168.69;;;9.86;100.00
71457;BME280;59263;48.160;11.752;2023-04-25T08:23:36;95174.94;;;9.75;100.00
71457;BME280;59263;48.160;11.752;2023-04-25T08:26:02;95171.44;;;9.84;100.00
71457;BME280;59263;48.160;11.752;2023-04-25T08:28:28;95176.38;;;10.04;100.00
71457;BME280;59263;48.160;11.752;2023-04-25T08:30:54;95186.41;;;10.07;100.00
71457;BME280;59263;48.160;11.752;2023-04-25T08:33:19;95172.78;;;9.97;100.00
71457;BME280;59263;48.160;11.752;2023-04-25T08:35:44;95175.72;;;10.02;100.00
71457;BME280;59263;48.160;11.752;2023-04-25T08:38:10;95179.28;;;10.35;100.00
71457;BME280;59263;48.160;11.752;2023-04-25T08:40:38;95180.09;;;10.52;100.00
71457;BME280;59263;48.160;11.752;2023-04-25T08:43:05;95170.22;;;10.39;100.00
71457;BME280;59263;48.160;11.752;2023-04-25T08:45:38;95160.41;;;10.75;100.00
71457;BME280;59263;48.160;11.752;2023-04-25T08:48:04;95155.13;;;11.01;100.00
71457;BME280;59263;48.160;11.752;2023-04-25T08:50:31;95154.91;;;11.19;100.00
71457;BME280;59263;48.160;11.752;2023-04-25T08:52:57;95173.69;;;11.29;100.00
71457;BME280;59263;48.160;11.752;2023-04-25T08:55:27;95163.03;;;11.00;100.00
71457;BME280;59263;48.160;11.752;2023-04-25T08:57:54;95147.63;;;10.90;100.00
71457;BME280;59263;48.160;11.752;2023-04-25T09:00:20;95164.94;;;10.81;100.00
71457;BME280;59263;48.160;11.752;2023-04-25T09:02:46;95167.34;;;10.66;100.00
71457;BME280;59263;48.160;11.752;2023-04-25T09:05:14;95168.81;;;10.61;100.00
71457;BME280;59263;48.160;11.752;2023-04-25T09:07:40;95170.06;;;10.49;100.00
71457;BME280;59263;48.160;11.752;2023-04-25T09:10:05;95166.53;;;10.50;100.00
71457;BME280;59263;48.160;11.752;2023-04-25T09:12:31;95164.09;;;10.48;100.00
71457;BME280;59263;48.160;11.752;2023-04-25T09:15:11;95162.00;;;10.44;100.00
71457;BME280;59263;48.160;11.752;2023-04-25T09:17:36;95162.38;;;10.73;100.00
71457;BME280;59263;48.160;11.752;2023-04-25T09:20:10;95161.91;;;11.02;100.00
71457;BME280;59263;48.160;11.752;2023-04-25T09:22:36;95176.09;;;11.47;100.00
71457;BME280;59263;48.160;11.752;2023-04-25T09:25:04;95168.34;;;11.23;100.00
71457;BME280;59263;48.160;11.752;2023-04-25T09:27:32;95153.63;;;11.15;100.00
71457;BME280;59263;48.160;11.752;2023-04-25T09:29:58;95169.81;;;11.17;100.00
71457;BME280;59263;48.160;11.752;2023-04-25T09:32:27;95156.06;;;11.25;100.00
71457;BME280;59263;48.160;11.752;2023-04-25T09:34:54;95169.78;;;11.58;100.00
71457;BME280;59263;48.160;11.752;2023-04-25T09:37:21;95161.28;;;11.89;100.00
71457;BME280;59263;48.160;11.752;2023-04-25T09:39:49;95169.09;;;12.28;100.00
71457;BME280;59263;48.160;11.752;2023-04-25T09:42:15;95160.03;;;12.55;100.00
71457;BME280;59263;48.160;11.752;2023-04-25T09:44:45;95176.88;;;12.82;100.00
71457;BME280;59263;48.160;11.752;2023-04-25T09:47:13;95170.53;;;12.84;100.00
71457;BME280;59263;48.160;11.752;2023-04-25T09:49:41;95162.06;;;12.91;100.00
71457;BME280;59263;48.160;11.752;2023-04-25T09:52:07;95175.06;;;12.91;100.00
71457;BME280;59263;48.160;11.752;2023-04-25T09:54:32;95164.66;;;12.91;84.74
71457;BME280;59263;48.160;11.752;2023-04-25T09:57:02;95159.00;;;13.10;100.00
71457;BME280;59263;48.160;11.752;2023-04-25T09:59:33;95163.13;;;13.19;89.28
71457;BME280;59263;48.160;11.752;2023-04-25T10:02:03;95156.31;;;13.41;81.05
71457;BME280;59263;48.160;11.752;2023-04-25T10:04:31;95141.72;;;13.17;100.00
71457;BME280;59263;48.160;11.752;2023-04-25T10:06:58;95161.59;;;13.10;90.75
71457;BME280;59263;48.160;11.752;2023-04-25T10:09:25;95163.84;;;13.13;87.90
71457;BME280;59263;48.160;11.752;2023-04-25T10:11:51;95157.13;;;13.19;86.79
71457;BME280;59263;48.160;11.752;2023-04-25T10:14:18;95148.13;;;13.29;89.52
71457;BME280;59263;48.160;11.752;2023-04-25T10:16:45;95160.63;;;13.49;80.67
71457;BME280;59263;48.160;11.752;2023-04-25T10:19:10;95144.59;;;13.90;90.06
71457;BME280;59263;48.160;11.752;2023-04-25T10:21:43;95149.44;;;13.93;77.05
71457;BME280;59263;48.160;11.752;2023-04-25T10:24:10;95148.53;;;13.86;68.78
71457;BME280;59263;48.160;11.752;2023-04-25T10:26:35;95146.59;;;13.88;73.91
71457;BME280;59263;48.160;11.752;2023-04-25T10:29:02;95145.59;;;13.74;74.12
71457;BME280;59263;48.160;11.752;2023-04-25T10:31:31;95148.38;;;13.72;84.30
71457;BME280;59263;48.160;11.752;2023-04-25T10:33:57;95142.44;;;13.78;80.02
71457;BME280;59263;48.160;11.752;2023-04-25T10:36:23;95140.75;;;13.86;88.49
71457;BME280;59263;48.160;11.752;2023-04-25T10:38:50;95129.72;;;13.84;75.75
71457;BME280;59263;48.160;11.752;2023-04-25T10:41:21;95119.38;;;13.90;77.63
71457;BME280;59263;48.160;11.752;2023-04-25T10:43:49;95131.97;;;14.38;82.00
71457;BME280;59263;48.160;11.752;2023-04-25T10:46:22;95143.25;;;14.45;62.81
71457;BME280;59263;48.160;11.752;2023-04-25T10:48:54;95142.09;;;14.47;70.13
71457;BME280;59263;48.160;11.752;2023-04-25T10:51:25;95137.22;;;14.08;65.89
71457;BME280;59263;48.160;11.752;2023-04-25T10:56:21;95161.25;;;13.51;75.58
71457;BME280;59263;48.160;11.752;2023-04-25T10:58:47;95160.25;;;13.14;100.00
71457;BME280;59263;48.160;11.752;2023-04-25T11:01:14;95166.63;;;12.89;100.00
71457;BME280;59263;48.160;11.752;2023-04-25T11:03:41;95183.28;;;12.01;100.00
71457;BME280;59263;48.160;11.752;2023-04-25T11:06:17;95213.16;;;11.56;100.00
71457;BME280;59263;48.160;11.752;2023-04-25T11:08:50;95221.94;;;11.14;100.00
71457;BME280;59263;48.160;11.752;2023-04-25T11:11:18;95221.56;;;10.76;100.00
71457;BME280;59263;48.160;11.752;2023-04-25T11:13:47;95249.91;;;10.44;100.00
71457;BME280;59263;48.160;11.752;2023-04-25T11:16:13;95235.91;;;10.20;100.00
71457;BME280;59263;48.160;11.752;2023-04-25T11:18:41;95246.72;;;9.89;100.00
71457;BME280;59263;48.160;11.752;2023-04-25T11:21:06;95266.97;;;9.50;100.00
71457;BME280;59263;48.160;11.752;2023-04-25T11:23:31;95274.44;;;9.35;100.00
71457;BME280;59263;48.160;11.752;2023-04-25T11:25:57;95265.72;;;9.01;100.00
71457;BME280;59263;48.160;11.752;2023-04-25T11:28:22;95288.53;;;9.05;100.00
71457;BME280;59263;48.160;11.752;2023-04-25T11:30:49;95285.63;;;9.08;100.00
71457;BME280;59263;48.160;11.752;2023-04-25T11:33:17;95291.75;;;8.89;100.00
71457;BME280;59263;48.160;11.752;2023-04-25T11:35:43;95285.78;;;9.07;100.00
71457;BME280;59263;48.160;11.752;2023-04-25T11:38:08;95292.50;;;9.00;100.00
71457;BME280;59263;48.160;11.752;2023-04-25T11:40:35;95296.25;;;8.87;100.00
71457;BME280;59263;48.160;11.752;2023-04-25T11:43:01;95300.81;;;8.93;100.00
71457;BME280;59263;48.160;11.752;2023-04-25T11:45:27;95281.59;;;8.88;100.00
71457;BME280;59263;48.160;11.752;2023-04-25T11:47:53;95283.44;;;8.95;100.00
71457;BME280;59263;48.160;11.752;2023-04-25T11:50:19;95310.34;;;9.11;100.00
71457;BME280;59263;48.160;11.752;2023-04-25T11:52:47;95314.03;;;9.08;100.00
71457;BME280;59263;48.160;11.752;2023-04-25T11:55:15;95291.53;;;9.01;100.00
71457;BME280;59263;48.160;11.752;2023-04-25T11:57:41;95296.63;;;9.10;100.00
71457;BME280;59263;48.160;11.752;2023-04-25T12:00:11;95307.56;;;9.22;100.00
71457;BME280;59263;48.160;11.752;2023-04-25T12:02:45;95301.06;;;9.36;100.00
71457;BME280;59263;48.160;11.752;2023-04-25T12:05:12;95299.81;;;9.58;100.00
71457;BME280;59263;48.160;11.752;2023-04-25T12:07:38;95297.28;;;9.66;100.00
71457;BME280;59263;48.160;11.752;2023-04-25T12:10:07;95290.72;;;9.72;100.00
71457;BME280;59263;48.160;11.752;2023-04-25T12:12:34;95296.06;;;9.78;100.00
71457;BME280;59263;48.160;11.752;2023-04-25T12:17:47;95323.09;;;9.66;100.00
71457;BME280;59263;48.160;11.752;2023-04-25T12:20:14;95299.75;;;9.32;100.00
71457;BME280;59263;48.160;11.752;2023-04-25T12:22:41;95318.28;;;9.27;100.00
71457;BME280;59263;48.160;11.752;2023-04-25T12:25:13;95336.88;;;9.03;100.00
71457;BME280;59263;48.160;11.752;2023-04-25T12:27:39;95333.34;;;8.86;100.00
71457;BME280;59263;48.160;11.752;2023-04-25T12:30:09;95333.75;;;8.82;100.00
71457;BME280;59263;48.160;11.752;2023-04-25T12:32:36;95339.34;;;8.50;100.00
71457;BME280;59263;48.160;11.752;2023-04-25T12:35:01;95342.34;;;8.35;100.00
71457;BME280;59263;48.160;11.752;2023-04-25T12:37:28;95349.94;;;8.46;100.00
71457;BME280;59263;48.160;11.752;2023-04-25T12:39:53;95343.44;;;8.42;100.00
71457;BME280;59263;48.160;11.752;2023-04-25T12:42:18;95327.16;;;8.42;100.00
71457;BME280;59263;48.160;11.752;2023-04-25T12:44:44;95350.31;;;8.52;100.00
71457;BME280;59263;48.160;11.752;2023-04-25T12:47:09;95343.03;;;8.37;100.00